M I D A S
Marine Information and Data Acquisition System
Tripno 2252 of the Zeeleeuw from 2012-01-10 07:41:26 to 2012-01-10 16:58:52
Back to CruiseResearch ActivitiesStationsMapUnderway DataData graphs

EquipmentUnitsComment
TimeDGPSUTC
LatitudeDGPSDM.mWGS84
LongitudeDGPSDM.mWGS84
HeadingGyrodeg 
SOGDGPSknotsSpeed over ground
COGDGPSdegCourse over ground
DepthEcho soundermeters200 kHz
Missing or incorrect values are displayed as -999
Navigation data collected by the RV Zeeleeuw from 2012-01-10 07:44:33 to 2012-01-10 17:02:15
Time Latitude Longitude Heading SOG COG Depth
2012-01-10 07:45:40 51°13.654 2°55.93 107.5 4 288 -999
2012-01-10 07:46:40 51°13.687 2°55.823 121.3 5 303 -999
2012-01-10 07:47:40 51°13.74 2°55.714 134.4 5.2 314 -999
2012-01-10 07:48:40 51°13.815 2°55.639 161.8 5.4 341 -999
2012-01-10 07:49:40 51°13.899 2°55.623 187.3 4.6 4 -999
2012-01-10 07:50:40 51°13.957 2°55.65 214 2.9 28 8.9
2012-01-10 07:51:40 51°13.975 2°55.663 251.2 1 277 -999
2012-01-10 07:52:40 51°13.995 2°55.593 302.3 5 306 9.1
2012-01-10 07:53:39 51°14.084 2°55.48 326.7 8.5 327 -999
2012-01-10 07:54:40 51°14.216 2°55.347 329.5 9.6 327 -999
2012-01-10 07:55:40 51°14.357 2°55.209 329.2 10.4 328 -999
2012-01-10 07:56:39 51°14.506 2°55.059 329.1 11.2 327 -999
2012-01-10 07:57:38 51°14.662 2°54.89 330.5 11.9 326 10.3
2012-01-10 07:58:36 51°14.82 2°54.711 327.9 12.2 322 10.3
2012-01-10 07:59:36 51°14.978 2°54.51 326.5 12 323 10.1
2012-01-10 08:00:36 51°15.135 2°54.312 324.2 12 318 10.3
2012-01-10 08:01:36 51°15.285 2°54.102 324.9 12 319 10.4
2012-01-10 08:02:36 51°15.439 2°53.9 325 12 320 10.7
2012-01-10 08:03:36 51°15.595 2°53.701 328.9 12 324 10.6
2012-01-10 08:04:36 51°15.766 2°53.54 338.3 11.9 333 11.1
2012-01-10 08:05:36 51°15.948 2°53.418 344.3 11.8 336 10.8
2012-01-10 08:06:36 51°16.123 2°53.274 339 11.8 332 10.8
2012-01-10 08:07:36 51°16.287 2°53.101 331.8 11.9 324 11
2012-01-10 08:08:36 51°16.452 2°52.93 333.4 11.8 328 11
2012-01-10 08:09:36 51°16.62 2°52.772 335.4 11.6 330 10.4
2012-01-10 08:10:36 51°16.787 2°52.623 337.1 11.3 332 8.9
2012-01-10 08:11:36 51°16.953 2°52.487 338.9 11.2 333 8.5
2012-01-10 08:12:36 51°17.118 2°52.343 336.1 11.4 330 9.1
2012-01-10 08:13:36 51°17.281 2°52.189 335.9 11.4 330 10.3
2012-01-10 08:14:36 51°17.45 2°52.057 342 11.3 335 10.2
2012-01-10 08:15:36 51°17.617 2°51.924 340.1 11.2 334 9.2
2012-01-10 08:16:36 51°17.782 2°51.78 337.1 11.3 329 9
2012-01-10 08:17:36 51°17.946 2°51.629 340 11.3 333 9.6
2012-01-10 08:18:36 51°18.114 2°51.489 339.4 11.6 330 10.6
2012-01-10 08:19:36 51°18.281 2°51.333 339 11.7 329 11.5
2012-01-10 08:20:37 51°18.453 2°51.179 343.3 11.5 334 12.5
2012-01-10 08:21:36 51°18.622 2°51.052 344.8 11.4 335 13.4
2012-01-10 08:22:37 51°18.797 2°50.912 342.7 11.6 333 13.7
2012-01-10 08:23:36 51°18.967 2°50.779 344.2 11.7 334 13.9
2012-01-10 08:24:36 51°19.144 2°50.652 343.8 11.8 333 13.4
2012-01-10 08:25:36 51°19.316 2°50.501 340.1 11.7 332 11.7
2012-01-10 08:26:36 51°19.493 2°50.376 347.5 11.6 340 10.8
2012-01-10 08:27:37 51°19.679 2°50.263 345.9 11.8 338 12.1
2012-01-10 08:28:36 51°19.857 2°50.137 341.6 12 332 13.9
2012-01-10 08:29:37 51°20.037 2°49.98 341.3 12.2 332 15.7
2012-01-10 08:30:36 51°20.219 2°49.854 346.6 12.1 337 18.2
2012-01-10 08:31:37 51°20.406 2°49.722 343.6 12.2 335 21.1
2012-01-10 08:32:36 51°20.584 2°49.577 341.2 12.2 333 22
2012-01-10 08:33:36 51°20.764 2°49.432 341.9 12 333 22.4
2012-01-10 08:34:36 51°20.942 2°49.297 346.6 11.8 339 22.1
2012-01-10 08:35:36 51°21.127 2°49.187 347.4 11.9 339 21.7
2012-01-10 08:36:36 51°21.308 2°49.06 342.8 12 336 20.9
2012-01-10 08:37:36 51°21.494 2°48.951 347.3 11.9 339 21
2012-01-10 08:38:37 51°21.68 2°48.83 343.2 11.9 335 22.7
2012-01-10 08:39:36 51°21.855 2°48.697 343.5 11.8 337 22.7
2012-01-10 08:40:37 51°22.043 2°48.585 345 12 336 22.8
2012-01-10 08:41:36 51°22.221 2°48.464 345.7 11.7 340 22.9
2012-01-10 08:42:36 51°22.402 2°48.361 348 11.4 341 18.2
2012-01-10 08:43:36 51°22.575 2°48.239 342.3 11.3 337 17
2012-01-10 08:44:36 51°22.746 2°48.106 341.9 11.4 336 18.4
2012-01-10 08:45:37 51°22.924 2°47.984 345.4 11.5 338 15.6
2012-01-10 08:46:36 51°23.096 2°47.856 341.2 11.7 334 18.3
2012-01-10 08:47:37 51°23.276 2°47.737 347.6 11.6 340 20.5
2012-01-10 08:48:36 51°23.453 2°47.628 347 11.6 339 20.6
2012-01-10 08:49:36 51°23.63 2°47.503 340.3 11.7 334 22.9
2012-01-10 08:50:36 51°23.807 2°47.374 343.4 11.7 335 19.1
2012-01-10 08:51:36 51°23.984 2°47.244 346.3 11.7 340 25.3
2012-01-10 08:52:36 51°24.164 2°47.131 342.7 11.7 334 26.1
2012-01-10 08:53:36 51°24.339 2°46.997 343.8 11.7 335 29.5
2012-01-10 08:54:37 51°24.522 2°46.881 347 11.6 339 28.8
2012-01-10 08:55:36 51°24.699 2°46.769 346.5 11.6 338 28.9
2012-01-10 08:56:37 51°24.878 2°46.637 340.6 11.7 333 24.6
2012-01-10 08:57:36 51°25.053 2°46.518 346.2 11.6 340 24.7
2012-01-10 08:58:36 51°25.228 2°46.388 339.4 11.7 331 25.1
2012-01-10 08:59:36 51°25.4 2°46.242 340.2 11.6 334 24.5
2012-01-10 09:00:36 51°25.573 2°46.104 340.7 11.6 334 23.2
2012-01-10 09:01:37 51°25.746 2°45.954 339 11.7 331 24.3
2012-01-10 09:02:36 51°25.918 2°45.828 345.9 11.5 340 25.5
2012-01-10 09:03:37 51°26.097 2°45.706 344.8 11.5 338 25.2
2012-01-10 09:04:36 51°26.268 2°45.575 339.5 11.7 330 27.1
2012-01-10 09:05:37 51°26.445 2°45.434 344.8 11.6 336 28.1
2012-01-10 09:06:36 51°26.618 2°45.303 341.2 11.8 330 28.4
2012-01-10 09:07:36 51°26.789 2°45.15 341.6 11.7 333 27.4
2012-01-10 09:08:36 51°26.964 2°45.016 341 11.8 332 28.1
2012-01-10 09:09:36 51°27.141 2°44.883 345 11.7 335 26.4
2012-01-10 09:10:37 51°27.318 2°44.739 339.8 11.8 332 27.4
2012-01-10 09:11:36 51°27.489 2°44.597 341.9 11.7 335 26.6
2012-01-10 09:12:37 51°27.668 2°44.457 341.5 11.8 335 26.1
2012-01-10 09:13:36 51°27.842 2°44.332 342.8 11.7 334 27.2
2012-01-10 09:14:37 51°28.019 2°44.187 340.8 11.7 334 29.4
2012-01-10 09:15:36 51°28.195 2°44.067 343.3 11.6 337 29.7
2012-01-10 09:16:36 51°28.373 2°43.948 341.9 11.7 334 31.4
2012-01-10 09:17:36 51°28.549 2°43.815 341.2 11.6 334 29.1
2012-01-10 09:18:36 51°28.721 2°43.675 341.2 11.6 336 29.9
2012-01-10 09:19:37 51°28.904 2°43.561 344.2 11.5 337 28.5
2012-01-10 09:20:36 51°29.077 2°43.438 345.2 11.5 338 30.6
2012-01-10 09:21:37 51°29.253 2°43.304 341.2 11.5 333 28
2012-01-10 09:22:36 51°29.421 2°43.163 340.6 11.7 333 31.2
2012-01-10 09:23:36 51°29.602 2°43.122 12.1 10.9 10 32
2012-01-10 09:24:36 51°29.779 2°43.184 17.4 10.8 14 29.3
2012-01-10 09:25:37 51°29.958 2°43.254 18.6 10.8 14 30.6
2012-01-10 09:26:36 51°30.128 2°43.335 19.9 10.9 17 31.2
2012-01-10 09:27:36 51°30.298 2°43.429 23.8 10.7 20 30.8
2012-01-10 09:28:37 51°30.471 2°43.512 19.1 10.7 14 31.4
2012-01-10 09:29:36 51°30.641 2°43.585 21.2 10.7 19 30.6
2012-01-10 09:30:37 51°30.815 2°43.674 18.6 10.7 16 32
2012-01-10 09:31:36 51°30.983 2°43.762 24.2 10.7 22 33
2012-01-10 09:32:36 51°31.153 2°43.856 20.2 10.9 16 34.3
2012-01-10 09:33:36 51°31.323 2°43.952 22.6 10.8 18 33.3
2012-01-10 09:34:36 51°31.497 2°44.032 18.8 11 15 34.5
2012-01-10 09:35:37 51°31.673 2°44.117 21.7 10.8 19 32.7
2012-01-10 09:36:36 51°31.838 2°44.216 23.6 10.8 20 33.4
2012-01-10 09:37:37 51°32.013 2°44.303 20.6 10.8 16 32.6
2012-01-10 09:38:36 51°32.183 2°44.379 21.5 10.8 21 31.8
2012-01-10 09:39:37 51°32.354 2°44.482 24 10.8 21 31.8
2012-01-10 09:40:36 51°32.525 2°44.558 17.2 10.8 16 30.3
2012-01-10 09:41:37 51°32.7 2°44.647 23.9 10.8 20 30.7
2012-01-10 09:42:36 51°32.867 2°44.747 23.7 10.7 20 30
2012-01-10 09:43:36 51°33.038 2°44.833 19.4 10.9 16 30.2
2012-01-10 09:44:37 51°33.212 2°44.921 23.2 10.8 20 29.4
2012-01-10 09:45:36 51°33.379 2°45.019 23.1 10.8 18 28.1
2012-01-10 09:46:37 51°33.552 2°45.108 19.8 10.8 18 27.4
2012-01-10 09:47:36 51°33.721 2°45.186 18.2 10.8 14 28.1
2012-01-10 09:48:37 51°33.898 2°45.264 18.3 10.8 16 27.3
2012-01-10 09:49:36 51°34.066 2°45.355 25 10.9 21 26.5
2012-01-10 09:50:37 51°34.237 2°45.456 22.6 10.7 17 25.9
2012-01-10 09:51:36 51°34.406 2°45.535 21.3 10.6 18 22.6
2012-01-10 09:52:37 51°34.578 2°45.628 21.2 10.7 17 21.7
2012-01-10 09:53:37 51°34.753 2°45.702 17.9 10.7 17 18.3
2012-01-10 09:54:37 51°34.927 2°45.774 16 11 9 15.4
2012-01-10 09:55:37 51°35.105 2°45.829 15.8 11 9 15.8
2012-01-10 09:56:36 51°35.282 2°45.88 14.9 11 10 16.1
2012-01-10 09:57:37 51°35.461 2°45.956 21.5 11 16 17.2
2012-01-10 09:58:36 51°35.634 2°46.023 17.6 11 12 18.2
2012-01-10 09:59:37 51°35.814 2°46.101 20.9 11 15 19.6
2012-01-10 10:00:37 51°35.99 2°46.177 19.4 11.1 14 20.1
2012-01-10 10:01:37 51°36.171 2°46.235 17.1 11 12 22.8
2012-01-10 10:02:37 51°36.345 2°46.329 24.2 11 21 23
2012-01-10 10:03:37 51°36.521 2°46.413 21.2 11 17 23.8
2012-01-10 10:04:37 51°36.697 2°46.499 21.5 11 18 25.2
2012-01-10 10:05:36 51°36.862 2°46.613 28.4 10.9 24 24.2
2012-01-10 10:06:37 51°37.034 2°46.722 22.1 11 18 24.6
2012-01-10 10:07:36 51°37.202 2°46.829 27.7 11 23 22.9
2012-01-10 10:08:37 51°37.375 2°46.937 25.5 11 22 25.3
2012-01-10 10:09:37 51°37.543 2°47.051 24.2 10.9 19 22
2012-01-10 10:10:37 51°37.713 2°47.157 29 11 26 24.2
2012-01-10 10:11:37 51°37.878 2°47.281 26.5 11.1 24 22.7
2012-01-10 10:12:37 51°38.047 2°47.39 23.3 10.9 21 22.9
2012-01-10 10:13:37 51°38.213 2°47.509 27.8 10.8 24 18.3
2012-01-10 10:14:36 51°38.38 2°47.606 23.2 10.9 19 20.2
2012-01-10 10:15:37 51°38.548 2°47.725 28.2 10.7 25 22.2
2012-01-10 10:16:36 51°38.714 2°47.825 21.9 10.7 18 23.3
2012-01-10 10:17:37 51°38.886 2°47.925 25.5 10.8 21 19.6
2012-01-10 10:18:37 51°39.057 2°48.026 22.6 10.9 18 21.3
2012-01-10 10:19:37 51°39.225 2°48.133 24.1 10.8 21 21.4
2012-01-10 10:20:37 51°39.396 2°48.229 19.6 10.8 15 17.8
2012-01-10 10:21:36 51°39.561 2°48.333 25.8 10.8 26 24.1
2012-01-10 10:22:37 51°39.729 2°48.453 22.6 10.9 17 20.8
2012-01-10 10:23:36 51°39.896 2°48.549 21.5 11 21 15.8
2012-01-10 10:24:37 51°40.066 2°48.658 25.7 10.8 23 21.6
2012-01-10 10:25:37 51°40.23 2°48.787 26.3 11 23 26.4
2012-01-10 10:26:37 51°40.403 2°48.879 18.2 11 16 27.2
2012-01-10 10:27:37 51°40.577 2°48.972 20.8 11.1 19 28.7
2012-01-10 10:28:37 51°40.752 2°49.06 19 11.1 17 24.8
2012-01-10 10:29:37 51°40.922 2°49.175 25.1 11 22 22.6
2012-01-10 10:30:36 51°41.09 2°49.274 23.2 11 20 28
2012-01-10 10:31:37 51°41.266 2°49.377 24.7 11.1 23 30.1
2012-01-10 10:32:36 51°41.436 2°49.474 19.2 11.1 16 31.4
2012-01-10 10:33:37 51°41.614 2°49.571 19.8 11 16 30.5
2012-01-10 10:34:37 51°41.789 2°49.646 7.3 10.9 4 29.6
2012-01-10 10:35:37 51°41.96 2°49.547 333.1 11.5 327 30
2012-01-10 10:36:37 51°42.105 2°49.34 320.8 11.7 316 29.5
2012-01-10 10:37:37 51°42.226 2°49.089 307 12 301 27.2
2012-01-10 10:38:37 51°42.333 2°48.816 308.1 12.1 302 27.6
2012-01-10 10:39:36 51°42.37 2°48.506 270 12.4 260 30.8
2012-01-10 10:40:37 51°42.251 2°48.227 217.8 12.9 215 33.8
2012-01-10 10:41:37 51°42.052 2°48.086 197 13.1 199 31.7
2012-01-10 10:42:37 51°41.844 2°47.967 194.6 13.2 196 27.8
2012-01-10 10:43:37 51°41.634 2°47.867 194.6 13.1 198 32.7
2012-01-10 10:44:37 51°41.43 2°47.738 200.3 13.3 201 30.5
2012-01-10 10:45:37 51°41.221 2°47.627 195.6 13.2 198 32.1
2012-01-10 10:46:36 51°41.019 2°47.51 196 13.1 196 32.7
2012-01-10 10:47:37 51°40.808 2°47.398 198.2 13 200 31.3
2012-01-10 10:48:36 51°40.607 2°47.277 200.4 13.2 203 33.1
2012-01-10 10:49:37 51°40.4 2°47.144 200.7 13.2 202 32.3
2012-01-10 10:50:37 51°40.193 2°47.03 196.9 13 199 33.8
2012-01-10 10:51:36 51°39.991 2°46.916 195.5 13.1 196 31.9
2012-01-10 10:52:37 51°39.781 2°46.803 199.8 13 202 33.3
2012-01-10 10:53:36 51°39.584 2°46.666 201.5 13.1 203 33.3
2012-01-10 10:54:37 51°39.379 2°46.53 201.1 13.1 202 34.5
2012-01-10 10:55:36 51°39.177 2°46.416 199.4 13.1 201 34.7
2012-01-10 10:56:37 51°38.971 2°46.275 200.4 13.1 202 34.1
2012-01-10 10:57:36 51°38.774 2°46.147 199 13.1 200 35.7
2012-01-10 10:58:37 51°38.562 2°46.056 191.7 12.9 194 33
2012-01-10 10:59:36 51°38.359 2°45.957 197.5 12.9 199 34.1
2012-01-10 11:00:37 51°38.15 2°45.845 196.6 12.9 197 34.6
2012-01-10 11:01:37 51°37.94 2°45.762 191 13 194 36.3
2012-01-10 11:02:36 51°37.735 2°45.674 193.9 12.9 197 36
2012-01-10 11:03:37 51°37.527 2°45.564 195.8 12.9 196 35.6
2012-01-10 11:04:36 51°37.324 2°45.47 197.5 12.8 200 34.9
2012-01-10 11:05:37 51°37.118 2°45.353 197.5 12.9 199 37.3
2012-01-10 11:06:36 51°36.917 2°45.249 194.1 12.8 194 36.7
2012-01-10 11:07:37 51°36.709 2°45.15 198.2 12.8 200 34.9
2012-01-10 11:08:37 51°36.509 2°45.034 196.1 12.7 197 38.5
2012-01-10 11:09:37 51°36.307 2°44.927 199.4 12.7 200 39.5
2012-01-10 11:10:37 51°36.107 2°44.816 198.1 12.7 200 36.3
2012-01-10 11:11:36 51°35.909 2°44.714 195.4 12.7 197 37.1
2012-01-10 11:12:37 51°35.704 2°44.619 194.4 12.6 196 36.7
2012-01-10 11:13:36 51°35.509 2°44.508 198.6 12.6 201 35.8
2012-01-10 11:14:37 51°35.31 2°44.389 198.6 12.5 198 36.2
2012-01-10 11:15:37 51°35.165 2°44.341 177.3 5.7 176 34.1
2012-01-10 11:16:37 51°35.09 2°44.356 180.1 4.1 181 34.4
2012-01-10 11:17:37 51°35.03 2°44.328 204 3.8 201 35.1
2012-01-10 11:18:37 51°34.968 2°44.297 196.8 3.8 196 35.7
2012-01-10 11:19:37 51°34.926 2°44.244 244.6 2.8 240 33
2012-01-10 11:20:36 51°34.93 2°44.178 308.2 2.7 308 34.2
2012-01-10 11:21:37 51°35.003 2°44.083 324.5 7.5 325 35.4
2012-01-10 11:22:36 51°35.084 2°43.967 296.6 5.2 293 37.8
2012-01-10 11:23:37 51°35.081 2°43.868 247.6 3 246 38.2
2012-01-10 11:24:36 51°35.056 2°43.806 236.3 2.7 230 39.4
2012-01-10 11:25:37 51°35.023 2°43.751 229.3 2.8 224 39
2012-01-10 11:26:37 51°34.987 2°43.703 222.5 2.9 216 39.3
2012-01-10 11:27:37 51°34.944 2°43.678 190 2.8 184 39.2
2012-01-10 11:28:37 51°34.835 2°43.712 170.6 10.6 172 36.8
2012-01-10 11:29:36 51°34.64 2°43.713 181.7 12.4 183 39
2012-01-10 11:30:37 51°34.431 2°43.688 181.5 12.4 183 36.8
2012-01-10 11:31:36 51°34.229 2°43.677 182.5 12.3 183 34
2012-01-10 11:32:37 51°34.02 2°43.654 183 12.5 183 33.6
2012-01-10 11:33:37 51°33.814 2°43.638 181.5 12.3 181 32.7
2012-01-10 11:34:37 51°33.608 2°43.648 177.3 12.4 179 30.4
2012-01-10 11:35:37 51°33.403 2°43.646 185.4 12.2 190 28.7
2012-01-10 11:36:36 51°33.247 2°43.48 230.7 11.6 236 29.3
2012-01-10 11:37:37 51°33.166 2°43.19 249 11.8 249 32.7
2012-01-10 11:38:36 51°33.09 2°42.908 244.9 11.8 245 33.6
2012-01-10 11:39:37 51°33.018 2°42.61 247.9 11.8 249 34.3
2012-01-10 11:40:36 51°32.943 2°42.328 247.3 11.7 249 36.3
2012-01-10 11:41:37 51°32.877 2°42.03 249.2 11.6 251 35.9
2012-01-10 11:42:37 51°32.815 2°41.734 251.7 11.7 251 36.8
2012-01-10 11:43:37 51°32.752 2°41.437 250 11.7 250 36.7
2012-01-10 11:44:37 51°32.68 2°41.146 247.2 11.8 247 39.1
2012-01-10 11:45:36 51°32.602 2°40.864 246.9 11.7 248 38.2
2012-01-10 11:46:37 51°32.556 2°40.558 267.5 11.5 272 39.5
2012-01-10 11:47:36 51°32.638 2°40.297 312.4 11.5 321 40.5
2012-01-10 11:48:37 51°32.818 2°40.313 29.1 11.8 28 39.8
2012-01-10 11:49:36 51°32.99 2°40.476 36.8 12.5 41 40.8
2012-01-10 11:50:36 51°33.134 2°40.718 43.8 12.5 47 40.4
2012-01-10 11:51:37 51°33.306 2°40.903 21.4 12.3 25 41.1
2012-01-10 11:52:36 51°33.492 2°41.038 20 12.4 22 41.1
2012-01-10 11:53:37 51°33.689 2°41.153 17.3 12.4 21 42
2012-01-10 11:54:36 51°33.88 2°41.267 18.2 12.5 22 42.6
2012-01-10 11:55:36 51°34.073 2°41.39 19.5 12.6 24 42.6
2012-01-10 11:56:36 51°34.266 2°41.517 17.3 12.4 20 43
2012-01-10 11:57:36 51°34.463 2°41.625 17.3 12.6 22 41.5
2012-01-10 11:58:37 51°34.662 2°41.745 13.4 12.6 18 43
2012-01-10 11:59:36 51°34.859 2°41.842 12.7 12.6 17 42.8
2012-01-10 12:00:36 51°35.056 2°41.957 16.2 12.6 20 41.9
2012-01-10 12:01:36 51°35.256 2°42.063 14.5 12.7 19 43
2012-01-10 12:02:36 51°35.455 2°42.18 15.8 12.7 20 43.8
2012-01-10 12:03:36 51°35.656 2°42.291 13.4 12.7 17 43.6
2012-01-10 12:04:36 51°35.856 2°42.409 18.8 12.9 23 45.1
2012-01-10 12:05:36 51°36.055 2°42.531 16.8 12.7 20 45.7
2012-01-10 12:06:36 51°36.257 2°42.634 12.9 12.7 16 44.6
2012-01-10 12:07:37 51°36.46 2°42.751 17.9 12.8 20 42.1
2012-01-10 12:08:37 51°36.66 2°42.867 14.1 12.7 17 42
2012-01-10 12:09:37 51°36.864 2°42.96 12.2 12.7 17 39.3
2012-01-10 12:10:37 51°37.066 2°43.071 19 12.8 22 38.8
2012-01-10 12:11:37 51°37.265 2°43.193 18.1 12.8 22 38.7
2012-01-10 12:12:36 51°37.464 2°43.294 12.3 12.8 16 38.2
2012-01-10 12:13:37 51°37.672 2°43.392 14 12.9 17 38.7
2012-01-10 12:14:36 51°37.874 2°43.49 14.2 12.9 18 39.8
2012-01-10 12:15:37 51°38.078 2°43.607 18.8 12.8 21 38
2012-01-10 12:16:37 51°38.279 2°43.727 17.9 13 22 35.2
2012-01-10 12:17:36 51°38.478 2°43.832 14.6 12.8 18 33.1
2012-01-10 12:18:37 51°38.685 2°43.931 15.5 12.8 18 40.2
2012-01-10 12:19:36 51°38.885 2°44.032 14.8 12.8 18 36.2
2012-01-10 12:20:37 51°39.091 2°44.14 16.3 12.9 19 38.7
2012-01-10 12:21:36 51°39.291 2°44.251 16 12.9 17 40.8
2012-01-10 12:22:36 51°39.496 2°44.353 12.9 12.8 14 37.6
2012-01-10 12:23:37 51°39.705 2°44.451 16.5 12.9 19 41.6
2012-01-10 12:24:36 51°39.906 2°44.549 14.4 12.9 19 34.9
2012-01-10 12:25:37 51°40.113 2°44.669 18.2 12.9 20 39.6
2012-01-10 12:26:36 51°40.317 2°44.762 12.6 13 14 39.1
2012-01-10 12:27:36 51°40.522 2°44.87 17.9 13 21 37.4
2012-01-10 12:28:36 51°40.728 2°44.972 12.4 12.9 14 41.7
2012-01-10 12:29:36 51°40.934 2°45.079 18.9 13 19 40.1
2012-01-10 12:30:37 51°41.143 2°45.193 15.4 13.1 18 40.1
2012-01-10 12:31:36 51°41.347 2°45.292 14.1 13.1 17 33.9
2012-01-10 12:32:37 51°41.559 2°45.386 13 13 16 41.7
2012-01-10 12:33:37 51°41.765 2°45.501 16.7 13 19 42.4
2012-01-10 12:34:37 51°41.972 2°45.603 15.1 13.1 18 38.4
2012-01-10 12:35:37 51°42.18 2°45.716 16.6 13.1 17 40.5
2012-01-10 12:36:37 51°42.389 2°45.813 13.3 13.1 16 39.4
2012-01-10 12:37:36 51°42.592 2°45.926 17.7 13.2 18 36.1
2012-01-10 12:38:37 51°42.804 2°46.029 13.8 13.1 17 37.9
2012-01-10 12:39:37 51°43.012 2°46.083 352.1 12.2 350 38.5
2012-01-10 12:40:37 51°43.164 2°45.908 304.9 11.5 312 37
2012-01-10 12:41:37 51°43.312 2°45.701 317.4 11.9 323 40.2
2012-01-10 12:42:37 51°43.479 2°45.524 323.1 12 327 39.8
2012-01-10 12:43:37 51°43.644 2°45.343 319.4 11.9 324 41.7
2012-01-10 12:44:36 51°43.789 2°45.138 312.2 11.8 317 40.7
2012-01-10 12:45:36 51°43.879 2°44.883 279.2 10.8 279 39.6
2012-01-10 12:46:36 51°43.907 2°44.592 275.7 11.1 281 41.3
2012-01-10 12:47:37 51°43.938 2°44.297 274.4 10.5 270 39.4
2012-01-10 12:48:37 51°43.844 2°44.151 197 5.6 187 36.6
2012-01-10 12:49:37 51°43.783 2°44.16 194.2 2.7 163 35.5
2012-01-10 12:50:37 51°43.751 2°44.215 144.6 3.3 111 37.1
2012-01-10 12:51:36 51°43.749 2°44.311 89.6 4.1 75 35.3
2012-01-10 12:52:37 51°43.789 2°44.403 27.5 4.2 37 38.3
2012-01-10 12:53:36 51°43.858 2°44.438 346.7 4.7 2 39.5
2012-01-10 12:54:37 51°43.907 2°44.4 275.6 2.3 296 40.1
2012-01-10 12:55:37 51°43.881 2°44.367 201.6 4.2 187 38.8
2012-01-10 12:56:37 51°43.784 2°44.328 205 6.9 197 36.2
2012-01-10 12:57:37 51°43.657 2°44.23 212.9 9.9 210 36.6
2012-01-10 12:58:36 51°43.51 2°44.087 213.1 10.7 210 40.8
2012-01-10 12:59:37 51°43.35 2°43.952 207.8 10.8 203 36.5
2012-01-10 13:00:36 51°43.189 2°43.838 206.7 10.6 204 39.1
2012-01-10 13:01:37 51°43.025 2°43.714 211.3 10.7 207 36.7
2012-01-10 13:02:37 51°42.862 2°43.597 205.8 10.8 203 38.1
2012-01-10 13:03:37 51°42.701 2°43.477 204.5 10.7 199 35
2012-01-10 13:04:37 51°42.527 2°43.404 198 11 195 36.2
2012-01-10 13:05:37 51°42.354 2°43.323 202.2 10.8 197 36.3
2012-01-10 13:06:37 51°42.182 2°43.236 201.1 10.6 197 36.4
2012-01-10 13:07:37 51°42.009 2°43.16 200.5 10.8 195 35.2
2012-01-10 13:08:37 51°41.838 2°43.067 201.9 10.8 196 37.5
2012-01-10 13:09:37 51°41.668 2°42.985 202.2 10.7 199 37.3
2012-01-10 13:10:37 51°41.499 2°42.891 203 10.7 198 35.8
2012-01-10 13:11:36 51°41.332 2°42.809 199.7 10.6 194 36.2
2012-01-10 13:12:37 51°41.157 2°42.738 199.9 10.7 195 36.9
2012-01-10 13:13:37 51°40.988 2°42.656 202.2 10.6 196 33.6
2012-01-10 13:14:37 51°40.871 2°42.639 176.3 4.9 153 35
2012-01-10 13:15:37 51°40.778 2°42.794 141.8 11.7 131 36.1
2012-01-10 13:16:37 51°40.647 2°43.051 136.5 12.7 129 34
2012-01-10 13:17:37 51°40.526 2°43.326 121.2 13 111 32.4
2012-01-10 13:18:36 51°40.469 2°43.664 112.9 13.4 108 36.8
2012-01-10 13:19:37 51°40.377 2°43.988 124.2 13 120 39.3
2012-01-10 13:20:36 51°40.279 2°44.289 125 12.7 118 38.7
2012-01-10 13:21:37 51°40.18 2°44.604 121.3 13 115 40.4
2012-01-10 13:22:37 51°40.089 2°44.92 120.3 12.9 117 41
2012-01-10 13:23:37 51°39.976 2°45.193 133.9 10 126 40.4
2012-01-10 13:24:37 51°39.909 2°45.31 161.3 3.8 135 41.8
2012-01-10 13:25:36 51°39.88 2°45.363 173.9 2 125 41.6
2012-01-10 13:26:37 51°39.869 2°45.408 178.9 1.7 100 42
2012-01-10 13:27:36 51°39.869 2°45.449 184.3 1.5 80 41.9
2012-01-10 13:28:37 51°39.876 2°45.491 187.9 1.8 71 40.9
2012-01-10 13:29:37 51°39.889 2°45.534 186.7 1.9 61 38.9
2012-01-10 13:30:37 51°39.905 2°45.581 185.8 2 60 36.3
2012-01-10 13:31:37 51°39.922 2°45.627 180.1 2 60 40.8
2012-01-10 13:32:36 51°39.939 2°45.673 171 2 56 41.5
2012-01-10 13:33:37 51°39.953 2°45.723 159 2.2 91 42.4
2012-01-10 13:34:37 51°39.955 2°45.824 84.9 5.1 68 42.4
2012-01-10 13:35:37 51°40.027 2°45.905 355.5 5.7 10 37.1
2012-01-10 13:36:37 51°40.154 2°45.876 337.1 10.4 348 40.2
2012-01-10 13:37:37 51°40.336 2°45.789 332.3 11.7 341 39.8
2012-01-10 13:38:37 51°40.523 2°45.693 333 11.9 342 40
2012-01-10 13:39:37 51°40.714 2°45.607 336.3 12 346 41
2012-01-10 13:40:37 51°40.894 2°45.535 332.6 8.1 345 40.4
2012-01-10 13:41:37 51°40.975 2°45.491 302.7 3.5 338 40.8
2012-01-10 13:42:37 51°41.02 2°45.463 291.5 2.7 342 40.1
2012-01-10 13:43:37 51°41.062 2°45.443 291.1 2.6 347 35.6
2012-01-10 13:44:37 51°41.099 2°45.427 284.3 2.1 344 41.7
2012-01-10 13:45:36 51°41.13 2°45.413 280.1 1.9 343 41.8
2012-01-10 13:46:37 51°41.16 2°45.399 276.8 1.8 344 41.8
2012-01-10 13:47:37 51°41.188 2°45.385 274.1 1.7 342 41.6
2012-01-10 13:48:37 51°41.215 2°45.369 272.9 1.7 339 41.5
2012-01-10 13:49:37 51°41.241 2°45.354 271.3 1.7 338 41.3
2012-01-10 13:50:37 51°41.269 2°45.339 280.4 1.9 333 40
2012-01-10 13:51:37 51°41.272 2°45.319 212.1 1.2 173 40.4
2012-01-10 13:52:37 51°41.229 2°45.349 183 3.7 158 41.1
2012-01-10 13:53:37 51°41.166 2°45.392 180.4 3.8 159 41.5
2012-01-10 13:54:37 51°41.122 2°45.418 195.3 1.7 159 41.7
2012-01-10 13:55:37 51°41.103 2°45.444 193.1 1.3 133 41.6
2012-01-10 13:56:37 51°41.089 2°45.465 207.4 0.8 147 41
2012-01-10 13:57:37 51°41.074 2°45.469 210.8 1.3 187 39.2
2012-01-10 13:58:37 51°40.999 2°45.422 206.3 7.1 203 40.8
2012-01-10 13:59:37 51°40.949 2°45.365 230.5 1.9 235 40.9
2012-01-10 14:00:37 51°40.943 2°45.34 238 0.6 285 39.7
2012-01-10 14:01:37 51°40.95 2°45.335 243.6 0.8 1 40.4
2012-01-10 14:02:37 51°40.965 2°45.345 250 1.1 33 41.1
2012-01-10 14:03:37 51°40.985 2°45.365 255.2 1.5 34 39.6
2012-01-10 14:04:37 51°41 2°45.35 254.2 1.9 289 39.8
2012-01-10 14:05:37 51°41.02 2°45.278 274 3.6 299 38.4
2012-01-10 14:06:37 51°41.047 2°45.224 267.8 2 318 38.7
2012-01-10 14:07:37 51°41.068 2°45.204 256.2 1.1 343 36.2
2012-01-10 14:08:37 51°41.085 2°45.199 249 1 351 37.5
2012-01-10 14:09:37 51°41.102 2°45.193 250.8 1 350 37.3
2012-01-10 14:10:37 51°41.113 2°45.194 221.9 0.5 50 37.6
2012-01-10 14:11:37 51°41.113 2°45.225 167.9 2 99 37.5
2012-01-10 14:12:36 51°41.104 2°45.293 154.4 2.9 111 37.2
2012-01-10 14:13:37 51°41.079 2°45.358 168.7 2.7 131 35.9
2012-01-10 14:14:37 51°41.049 2°45.4 184.5 2.2 148 39.9
2012-01-10 14:15:37 51°41.019 2°45.417 200 1.7 174 41.6
2012-01-10 14:16:37 51°40.994 2°45.412 214.2 1.5 201 39.7
2012-01-10 14:17:37 51°40.971 2°45.396 212 1.6 197 39.6
2012-01-10 14:18:37 51°40.942 2°45.396 196.2 2 164 41.1
2012-01-10 14:19:37 51°40.906 2°45.423 180.9 2.6 147 39.6
2012-01-10 14:20:37 51°40.868 2°45.475 167.3 3.2 137 37.1
2012-01-10 14:21:37 51°40.833 2°45.498 206 1.6 188 35
2012-01-10 14:22:37 51°40.821 2°45.449 239.9 3 249 38.7
2012-01-10 14:23:37 51°40.774 2°45.401 198 4.1 186 42.2
2012-01-10 14:24:36 51°40.687 2°45.346 212.2 6.7 213 42
2012-01-10 14:25:36 51°40.59 2°45.241 214.1 7.2 215 39.1
2012-01-10 14:26:37 51°40.48 2°45.142 202.6 7.9 197 37.2
2012-01-10 14:27:36 51°40.346 2°45.122 181 9.1 172 39.8
2012-01-10 14:28:36 51°40.182 2°45.167 176.8 10.5 170 35.9
2012-01-10 14:29:37 51°40.005 2°45.207 178.6 10.5 173 38.5
2012-01-10 14:30:37 51°39.829 2°45.238 181 10.6 177 34.5
2012-01-10 14:31:37 51°39.654 2°45.255 179.8 10.6 175 39.3
2012-01-10 14:32:36 51°39.482 2°45.267 179.4 10.7 175 37.4
2012-01-10 14:33:36 51°39.306 2°45.285 181.4 10.6 175 38.1
2012-01-10 14:34:37 51°39.126 2°45.309 181.7 10.7 179 38.3
2012-01-10 14:35:36 51°38.953 2°45.327 177.5 10.8 173 38.5
2012-01-10 14:36:36 51°38.776 2°45.355 180.7 10.7 176 34.4
2012-01-10 14:37:37 51°38.598 2°45.37 177.9 10.7 174 35.7
2012-01-10 14:38:36 51°38.424 2°45.389 178.8 10.5 175 35.5
2012-01-10 14:39:37 51°38.245 2°45.409 180.8 10.6 177 38
2012-01-10 14:40:36 51°38.074 2°45.415 181.7 10.5 179 34
2012-01-10 14:41:36 51°37.898 2°45.439 179.9 10.5 176 37.3
2012-01-10 14:42:37 51°37.72 2°45.49 171.9 10.7 166 37.9
2012-01-10 14:43:36 51°37.548 2°45.56 172.1 10.8 165 36.5
2012-01-10 14:44:36 51°37.374 2°45.621 177.5 10.7 171 37
2012-01-10 14:45:37 51°37.197 2°45.668 174.4 10.8 167 38.6
2012-01-10 14:46:37 51°37.02 2°45.728 176 10.7 171 34
2012-01-10 14:47:36 51°36.847 2°45.78 173.3 10.9 167 33.8
2012-01-10 14:48:37 51°36.666 2°45.843 174.7 10.9 170 33.8
2012-01-10 14:49:36 51°36.489 2°45.899 171.2 11.1 166 30.9
2012-01-10 14:50:37 51°36.306 2°45.952 176.4 11 172 28.5
2012-01-10 14:51:36 51°36.128 2°46 173.8 11.1 168 27.2
2012-01-10 14:52:36 51°35.947 2°46.06 173.4 11.2 169 24.4
2012-01-10 14:53:36 51°35.766 2°46.128 172.1 11.2 166 20.3
2012-01-10 14:54:36 51°35.584 2°46.18 176.3 11 170 18.1
2012-01-10 14:55:37 51°35.398 2°46.232 175 11.3 171 23.8
2012-01-10 14:56:37 51°35.214 2°46.28 172.9 11.2 168 30.1
2012-01-10 14:57:37 51°35.031 2°46.339 171.5 11.1 167 35.7
2012-01-10 14:58:36 51°34.853 2°46.383 175.4 11 171 34.5
2012-01-10 14:59:36 51°34.674 2°46.438 174.7 11 172 34.2
2012-01-10 15:00:36 51°34.495 2°46.494 171.5 10.9 169 34.7
2012-01-10 15:01:37 51°34.312 2°46.533 178.1 10.9 174 35.1
2012-01-10 15:02:37 51°34.132 2°46.571 175.7 10.9 172 30.8
2012-01-10 15:03:36 51°33.956 2°46.628 172.6 10.9 169 32.7
2012-01-10 15:04:37 51°33.775 2°46.681 173.6 11 169 35.1
2012-01-10 15:05:36 51°33.599 2°46.739 173.4 11 171 31.6
2012-01-10 15:06:37 51°33.415 2°46.777 176.6 11 174 34.3
2012-01-10 15:07:36 51°33.238 2°46.816 176.2 11 173 34.6
2012-01-10 15:08:36 51°33.058 2°46.868 172.1 11 167 33.3
2012-01-10 15:09:37 51°32.875 2°46.936 172.2 11.2 168 34.6
2012-01-10 15:10:36 51°32.696 2°46.988 176.9 10.9 174 35
2012-01-10 15:11:37 51°32.511 2°47.029 175.5 11.1 171 34
2012-01-10 15:12:37 51°32.328 2°47.075 173.8 11.1 168 32.1
2012-01-10 15:13:37 51°32.147 2°47.133 175.9 11 172 32.7
2012-01-10 15:14:36 51°31.968 2°47.183 172.3 11.2 168 30.8
2012-01-10 15:15:37 51°31.782 2°47.231 175.2 11 172 32.6
2012-01-10 15:16:36 51°31.602 2°47.271 176.5 11 173 31.4
2012-01-10 15:17:37 51°31.417 2°47.331 169.9 11.3 167 30.2
2012-01-10 15:18:36 51°31.236 2°47.382 176.5 11.2 175 30.9
2012-01-10 15:19:36 51°31.051 2°47.42 175.3 11.1 173 31.2
2012-01-10 15:20:37 51°30.864 2°47.468 172.8 11.3 171 29.6
2012-01-10 15:21:36 51°30.683 2°47.514 174.9 11.2 173 30.7
2012-01-10 15:22:37 51°30.497 2°47.568 171.2 11.1 168 26.8
2012-01-10 15:23:37 51°30.314 2°47.612 177.4 11.1 174 27.9
2012-01-10 15:24:36 51°30.135 2°47.653 176.5 11 173 25.2
2012-01-10 15:25:36 51°29.954 2°47.69 174.8 11.1 171 23.3
2012-01-10 15:26:36 51°29.774 2°47.752 171.4 11.1 169 23.9
2012-01-10 15:27:36 51°29.593 2°47.791 175.1 11.2 173 25.5
2012-01-10 15:28:37 51°29.404 2°47.843 175 11.1 174 26.9
2012-01-10 15:29:37 51°29.22 2°47.875 176.1 11.2 171 27.3
2012-01-10 15:30:36 51°29.04 2°47.931 172.3 11.3 168 28.4
2012-01-10 15:31:37 51°28.852 2°47.973 173.1 11.3 169 30.1
2012-01-10 15:32:36 51°28.671 2°48.02 176.5 11.2 174 32.4
2012-01-10 15:33:37 51°28.482 2°48.06 177.2 11.3 172 33.2
2012-01-10 15:34:37 51°28.298 2°48.113 171.6 11.2 168 31.8
2012-01-10 15:35:36 51°28.117 2°48.158 176.5 11 174 33.1
2012-01-10 15:36:36 51°27.933 2°48.208 170.9 11.3 168 30.6
2012-01-10 15:37:36 51°27.748 2°48.262 173.5 11.3 171 28.6
2012-01-10 15:38:37 51°27.559 2°48.306 173.7 11.3 171 28.9
2012-01-10 15:39:37 51°27.372 2°48.338 175.9 11.3 174 28.3
2012-01-10 15:40:36 51°27.19 2°48.393 172.1 11.4 171 27.5
2012-01-10 15:41:36 51°27.004 2°48.424 177.2 11.2 175 26.2
2012-01-10 15:42:37 51°26.815 2°48.462 175.1 11.2 172 24.6
2012-01-10 15:43:37 51°26.63 2°48.514 174.6 11.2 173 24
2012-01-10 15:44:37 51°26.445 2°48.558 174.3 11.2 172 22.9
2012-01-10 15:45:37 51°26.259 2°48.604 175.3 11.3 174 23.5
2012-01-10 15:46:36 51°26.076 2°48.634 176 11.3 174 25.6
2012-01-10 15:47:37 51°25.889 2°48.677 171.4 11.3 167 25.4
2012-01-10 15:48:36 51°25.708 2°48.728 176.8 11.2 172 25.6
2012-01-10 15:49:37 51°25.522 2°48.765 172.8 11.1 170 26
2012-01-10 15:50:37 51°25.337 2°48.813 175.9 11.2 174 27.3
2012-01-10 15:51:36 51°25.153 2°48.856 172.1 11.5 169 25.9
2012-01-10 15:52:36 51°24.966 2°48.908 173.8 11.4 173 24.9
2012-01-10 15:53:36 51°24.777 2°48.934 177.7 11.3 176 23.9
2012-01-10 15:54:37 51°24.585 2°48.965 175 11.4 174 24
2012-01-10 15:55:37 51°24.397 2°49.008 171 11.5 169 22
2012-01-10 15:56:37 51°24.209 2°49.047 177.1 11.4 175 24.2
2012-01-10 15:57:36 51°24.031 2°49.136 157.1 11.6 153 24.2
2012-01-10 15:58:37 51°23.853 2°49.273 157.6 11.7 156 23.5
2012-01-10 15:59:36 51°23.68 2°49.4 157.1 11.6 156 24.2
2012-01-10 16:00:37 51°23.514 2°49.572 142.7 11.9 138 22.3
2012-01-10 16:01:37 51°23.366 2°49.784 142.3 11.9 141 21
2012-01-10 16:02:36 51°23.209 2°49.962 150.4 11.5 151 18
2012-01-10 16:03:37 51°23.029 2°50.069 169.1 11.3 167 18.1
2012-01-10 16:04:36 51°22.847 2°50.129 170.1 11.4 169 18.7
2012-01-10 16:05:37 51°22.661 2°50.216 164.5 11.5 162 22.9
2012-01-10 16:06:37 51°22.476 2°50.295 170 11.5 170 24.2
2012-01-10 16:07:36 51°22.293 2°50.362 167.5 11.6 165 24.4
2012-01-10 16:08:36 51°22.104 2°50.432 169.5 11.6 168 24.2
2012-01-10 16:09:37 51°21.915 2°50.52 167 11.7 165 24
2012-01-10 16:10:37 51°21.726 2°50.588 168.9 11.6 166 24.9
2012-01-10 16:11:37 51°21.54 2°50.679 163.7 11.7 162 24.9
2012-01-10 16:12:37 51°21.354 2°50.75 170.1 11.4 170 24.7
2012-01-10 16:13:36 51°21.171 2°50.816 166.3 11.6 165 24.8
2012-01-10 16:14:37 51°20.985 2°50.918 162.7 11.5 161 22.7
2012-01-10 16:15:36 51°20.806 2°50.994 165.3 11.5 167 20.3
2012-01-10 16:16:37 51°20.619 2°51.081 165.1 11.5 167 17.7
2012-01-10 16:17:37 51°20.432 2°51.154 166.8 11.6 169 17.1
2012-01-10 16:18:36 51°20.25 2°51.23 163.9 11.5 165 14.9
2012-01-10 16:19:37 51°20.059 2°51.303 164 11.7 166 13.7
2012-01-10 16:20:36 51°19.873 2°51.365 167.8 11.6 168 15.2
2012-01-10 16:21:37 51°19.682 2°51.447 163.8 11.8 164 15.9
2012-01-10 16:22:37 51°19.495 2°51.53 167.7 11.6 169 16.4
2012-01-10 16:23:36 51°19.308 2°51.593 167.7 11.6 168 16.5
2012-01-10 16:24:36 51°19.119 2°51.664 163.1 11.5 163 16.2
2012-01-10 16:25:37 51°18.93 2°51.737 169.2 11.4 169 15.3
2012-01-10 16:26:36 51°18.743 2°51.801 168.4 11.6 168 14.4
2012-01-10 16:27:37 51°18.55 2°51.855 169.2 11.6 171 13.5
2012-01-10 16:28:37 51°18.361 2°51.921 165.3 11.8 167 12.5
2012-01-10 16:29:36 51°18.176 2°51.98 168.1 11.4 170 11.7
2012-01-10 16:30:37 51°17.986 2°52.057 163 11.7 164 12
2012-01-10 16:31:36 51°17.8 2°52.112 169.9 11.7 172 12.1
2012-01-10 16:32:37 51°17.607 2°52.169 165.6 11.6 167 12.1
2012-01-10 16:33:37 51°17.417 2°52.221 170.3 11.5 172 12.1
2012-01-10 16:34:36 51°17.233 2°52.296 160.6 11.6 160 11.2
2012-01-10 16:35:37 51°17.05 2°52.415 159.6 11.6 159 10.7
2012-01-10 16:36:37 51°16.869 2°52.525 159 11.6 159 10.7
2012-01-10 16:37:37 51°16.701 2°52.681 149.2 11.9 150 11.5
2012-01-10 16:38:36 51°16.533 2°52.835 148.7 11.7 150 12.5
2012-01-10 16:39:37 51°16.353 2°52.977 153.2 11.8 155 13.1
2012-01-10 16:40:36 51°16.181 2°53.121 149.6 11.8 151 13.2
2012-01-10 16:41:37 51°16.007 2°53.28 148.2 11.9 150 13.2
2012-01-10 16:42:36 51°15.844 2°53.45 144.4 11.9 147 13.1
2012-01-10 16:43:37 51°15.686 2°53.645 139.5 11.8 143 12.6
2012-01-10 16:44:37 51°15.526 2°53.827 142.2 11.7 145 12.4
2012-01-10 16:45:36 51°15.368 2°54.008 142.6 11.9 144 12.2
2012-01-10 16:46:37 51°15.205 2°54.2 141 11.8 141 12.1
2012-01-10 16:47:36 51°15.053 2°54.387 141.8 11.7 142 12
2012-01-10 16:48:37 51°14.898 2°54.585 140.2 11.7 141 12.3
2012-01-10 16:49:36 51°14.75 2°54.775 138.4 11.8 142 11.9
2012-01-10 16:50:37 51°14.59 2°54.957 141.8 11.6 143 12.3
2012-01-10 16:51:37 51°14.432 2°55.138 144.4 11.5 145 -999
2012-01-10 16:52:40 51°14.287 2°55.283 148.6 8.7 149 -999
2012-01-10 16:53:40 51°14.163 2°55.389 151.7 8.3 153 10.8
2012-01-10 16:54:40 51°14.048 2°55.474 154 6.6 154 -999
2012-01-10 16:55:40 51°13.962 2°55.537 155.6 5.3 157 10.8
2012-01-10 16:56:40 51°13.884 2°55.592 155.1 5 156 10.9
2012-01-10 16:57:39 51°13.812 2°55.647 151.8 3.8 150 11.4
2012-01-10 16:58:39 51°13.756 2°55.715 139.4 4.6 139 11.6
2012-01-10 16:59:40 51°13.696 2°55.821 125.5 5.5 127 -999
2012-01-10 17:00:40 51°13.652 2°55.93 112.5 4.3 115 -999
2012-01-10 17:01:40 51°13.638 2°56.008 108 1.7 104 -999